Time;durP1;ratioP1;P1;durP2;ratioP2;P2;SDS_P1;SDS_P2;PMS_P1;PMS_P2;Temp;Humidity;BMP_temperature;BMP_pressure;BME280_temperature;BME280_humidity;BME280_pressure;Samples;Min_cycle;Max_cycle;Signal;HPM_P1;HPM_P2
2021/12/17 00:00:17;;;;;;;4.83;4.30;;;;;;;;;;5031905;28;20204;-72
2021/12/17 00:03:11;;;;;;;5.60;4.20;;;;;;;;;;5027337;28;20367;-71
2021/12/17 00:08:14;;;;;;;3.53;3.10;;;;;;;;;;5029591;28;20424;-72
2021/12/17 00:10:40;;;;;;;3.03;2.63;;;;;;;;;;5029388;28;20705;-70
2021/12/17 00:13:07;;;;;;;2.90;2.50;;;;;;;;;;5027100;28;20262;-70
2021/12/17 00:15:32;;;;;;;1.80;1.70;;;;;;;;;;5042978;28;20446;-71
2021/12/17 00:18:06;;;;;;;2.50;2.07;;;;;;;;;;5028784;28;20781;-70
2021/12/17 00:40:03;;;;;;;2.20;2.00;;;;;;;;;;5026856;28;20175;-71
2021/12/17 00:53:43;;;;;;;5.57;4.80;;;;;;;;;;4967347;28;20513;-70
2021/12/17 00:56:10;;;;;;;4.93;4.43;;;;;;;;;;5027710;28;20941;-70
2021/12/17 00:58:36;;;;;;;4.67;3.80;;;;;;;;;;5019296;28;20310;-70
2021/12/17 01:01:01;;;;;;;4.43;4.03;;;;;;;;;;5023147;28;20540;-71
2021/12/17 01:03:27;;;;;;;4.20;3.73;;;;;;;;;;5029314;28;20235;-70
2021/12/17 01:05:52;;;;;;;4.00;3.33;;;;;;;;;;5028959;28;20276;-71
2021/12/17 01:08:17;;;;;;;3.53;3.23;;;;;;;;;;5024526;28;20206;-71
2021/12/17 01:10:47;;;;;;;3.33;2.90;;;;;;;;;;5029540;28;20296;-72
2021/12/17 01:13:12;;;;;;;3.10;2.70;;;;;;;;;;5030796;28;20656;-70
2021/12/17 01:15:38;;;;;;;3.37;3.07;;;;;;;;;;5024723;28;20446;-74
2021/12/17 01:18:09;;;;;;;3.50;3.20;;;;;;;;;;5029021;28;20198;-72
2021/12/17 01:35:19;;;;;;;3.23;2.93;;;;;;;;;;5029055;28;20168;-70
2021/12/17 01:36:44;;;;;;;3.50;3.20;;;;;;;;;;5029036;28;20895;-73
2021/12/17 01:42:06;;;;;;;3.43;3.13;;;;;;;;;;5030825;28;20183;-69
2021/12/17 01:44:32;;;;;;;6.93;3.80;;;;;;;;;;5025532;28;20494;-70
2021/12/17 01:46:58;;;;;;;3.80;3.37;;;;;;;;;;5027766;28;20605;-71
2021/12/17 01:55:40;;;;;;;4.10;3.47;;;;;;;;;;5028922;28;20526;-71
2021/12/17 02:00:22;;;;;;;2.70;2.50;;;;;;;;;;5029496;28;20938;-71
2021/12/17 02:02:50;;;;;;;2.80;2.60;;;;;;;;;;5028180;28;20426;-72
2021/12/17 02:05:15;;;;;;;3.90;3.03;;;;;;;;;;5025386;28;20557;-70
2021/12/17 02:07:42;;;;;;;2.63;2.43;;;;;;;;;;5027524;28;20518;-71
2021/12/17 02:29:13;;;;;;;2.40;2.30;;;;;;;;;;5025906;28;20422;-71
2021/12/17 02:31:39;;;;;;;2.87;2.50;;;;;;;;;;5024129;28;20430;-72
2021/12/17 02:37:02;;;;;;;2.33;2.03;;;;;;;;;;5026025;28;20192;-70
2021/12/17 02:47:20;;;;;;;3.10;2.60;;;;;;;;;;5026695;28;20437;-71
2021/12/17 02:49:46;;;;;;;2.40;2.20;;;;;;;;;;5028803;28;20439;-70
2021/12/17 02:52:12;;;;;;;2.30;2.20;;;;;;;;;;5028452;28;20605;-70
2021/12/17 02:54:38;;;;;;;2.63;2.43;;;;;;;;;;5028703;28;20450;-70
2021/12/17 02:57:04;;;;;;;3.77;2.77;;;;;;;;;;5026547;28;21134;-71
2021/12/17 02:59:32;;;;;;;3.43;2.60;;;;;;;;;;5025039;28;20199;-72
2021/12/17 03:01:57;;;;;;;2.57;2.10;;;;;;;;;;5027697;28;20446;-71
2021/12/17 03:04:23;;;;;;;2.83;2.63;;;;;;;;;;5027594;28;20608;-71
2021/12/17 03:06:51;;;;;;;3.00;2.80;;;;;;;;;;5026082;28;20180;-70
2021/12/17 03:09:22;;;;;;;2.77;2.50;;;;;;;;;;5026040;28;20177;-72
2021/12/17 03:11:47;;;;;;;2.43;2.23;;;;;;;;;;5026700;28;20472;-71
2021/12/17 03:14:13;;;;;;;2.83;2.63;;;;;;;;;;5025355;28;20447;-70
2021/12/17 03:16:52;;;;;;;2.73;2.53;;;;;;;;;;5026860;28;20189;-70
2021/12/17 03:23:25;;;;;;;2.07;1.90;;;;;;;;;;5021769;28;20199;-71
2021/12/17 03:24:53;;;;;;;4.50;2.93;;;;;;;;;;5023275;28;20968;-70
2021/12/17 03:27:18;;;;;;;3.37;3.07;;;;;;;;;;5023880;28;20435;-71
2021/12/17 03:29:46;;;;;;;2.60;2.40;;;;;;;;;;5021389;28;20185;-71
2021/12/17 03:32:15;;;;;;;3.17;2.97;;;;;;;;;;5026798;28;20184;-70
2021/12/17 03:34:43;;;;;;;2.60;2.40;;;;;;;;;;5023043;28;20489;-71
2021/12/17 03:37:08;;;;;;;2.37;2.17;;;;;;;;;;5029601;28;20564;-71
2021/12/17 03:39:37;;;;;;;2.60;2.40;;;;;;;;;;5023166;28;20458;-71
2021/12/17 03:42:06;;;;;;;2.50;2.17;;;;;;;;;;5023945;28;20184;-70
2021/12/17 03:44:34;;;;;;;2.67;2.47;;;;;;;;;;5022991;28;20459;-70
2021/12/17 03:47:00;;;;;;;2.70;2.50;;;;;;;;;;5024403;28;20526;-71
2021/12/17 03:49:26;;;;;;;2.97;2.77;;;;;;;;;;5029379;28;20452;-71
2021/12/17 03:52:04;;;;;;;2.50;2.30;;;;;;;;;;5026229;28;20443;-71
2021/12/17 03:54:31;;;;;;;2.70;2.57;;;;;;;;;;5025838;28;20449;-71
2021/12/17 03:57:02;;;;;;;2.50;2.30;;;;;;;;;;5029612;28;20500;-72
2021/12/17 03:59:27;;;;;;;5.40;2.20;;;;;;;;;;5027838;28;20467;-72
2021/12/17 04:01:53;;;;;;;2.70;2.50;;;;;;;;;;5027274;28;20435;-70
2021/12/17 04:04:21;;;;;;;2.63;2.43;;;;;;;;;;5024528;28;20196;-71
2021/12/17 04:06:46;;;;;;;3.00;2.70;;;;;;;;;;5027068;28;20176;-70
2021/12/17 04:09:12;;;;;;;2.60;2.40;;;;;;;;;;5027624;28;20450;-71
2021/12/17 04:11:40;;;;;;;2.87;2.60;;;;;;;;;;5026309;28;20184;-71
2021/12/17 04:14:05;;;;;;;2.60;2.40;;;;;;;;;;5025154;28;20257;-71
2021/12/17 04:16:33;;;;;;;2.43;2.33;;;;;;;;;;5026201;28;20845;-72
2021/12/17 04:19:01;;;;;;;3.23;2.93;;;;;;;;;;5029411;28;20215;-71
2021/12/17 04:21:27;;;;;;;3.27;3.07;;;;;;;;;;5028457;28;20430;-71
2021/12/17 04:23:56;;;;;;;3.53;3.00;;;;;;;;;;5027589;28;20458;-70
2021/12/17 04:26:25;;;;;;;3.20;3.00;;;;;;;;;;5026814;28;20238;-74
2021/12/17 04:28:54;;;;;;;3.30;3.00;;;;;;;;;;5032057;28;20434;-70
2021/12/17 04:31:21;;;;;;;3.53;3.23;;;;;;;;;;5030905;28;20438;-71
2021/12/17 04:33:46;;;;;;;3.40;3.10;;;;;;;;;;5034232;28;20451;-71
2021/12/17 04:36:15;;;;;;;3.37;3.10;;;;;;;;;;5031466;28;20492;-72
2021/12/17 04:38:41;;;;;;;3.73;3.43;;;;;;;;;;5033688;28;20258;-71
2021/12/17 04:44:17;;;;;;;3.27;3.07;;;;;;;;;;4987730;28;20722;-72
2021/12/17 04:57:30;;;;;;;3.40;3.10;;;;;;;;;;5030557;28;20519;-71
2021/12/17 04:59:59;;;;;;;4.30;3.20;;;;;;;;;;5023745;28;21486;-73
2021/12/17 05:02:26;;;;;;;3.63;3.33;;;;;;;;;;5028878;28;20459;-71
2021/12/17 05:05:06;;;;;;;3.83;3.30;;;;;;;;;;5022806;28;20471;-71
2021/12/17 05:07:33;;;;;;;3.20;3.00;;;;;;;;;;5024974;28;20501;-71
2021/12/17 05:20:54;;;;;;;3.37;3.10;;;;;;;;;;5028383;28;20457;-71
2021/12/17 05:23:30;;;;;;;3.27;2.97;;;;;;;;;;5028265;28;20937;-73
2021/12/17 05:25:59;;;;;;;3.13;2.90;;;;;;;;;;5030402;28;20509;-71
2021/12/17 05:28:25;;;;;;;3.40;3.10;;;;;;;;;;5031537;28;20441;-71
2021/12/17 05:30:50;;;;;;;4.07;3.40;;;;;;;;;;5025052;28;20446;-71
2021/12/17 05:33:17;;;;;;;3.93;3.53;;;;;;;;;;5034771;28;20184;-70
2021/12/17 05:35:42;;;;;;;3.67;3.37;;;;;;;;;;5024963;28;20401;-71
2021/12/17 05:38:08;;;;;;;5.13;3.47;;;;;;;;;;5021320;28;20496;-72
2021/12/17 05:40:33;;;;;;;4.10;3.70;;;;;;;;;;5024411;28;20195;-71
2021/12/17 05:43:01;;;;;;;3.50;3.17;;;;;;;;;;5025511;28;20698;-72
2021/12/17 05:45:47;;;;;;;3.27;2.97;;;;;;;;;;5018449;28;20215;-72
2021/12/17 05:48:15;;;;;;;3.23;2.90;;;;;;;;;;5025973;28;20539;-73
2021/12/17 05:50:41;;;;;;;6.07;3.97;;;;;;;;;;5028729;28;20649;-72
2021/12/17 05:53:07;;;;;;;4.70;4.20;;;;;;;;;;5028707;28;20431;-70
2021/12/17 05:55:33;;;;;;;3.73;3.43;;;;;;;;;;5015127;28;20446;-70
2021/12/17 05:57:59;;;;;;;3.70;3.40;;;;;;;;;;5022380;28;20480;-71
2021/12/17 06:00:34;;;;;;;3.73;3.40;;;;;;;;;;5023730;28;20184;-72
2021/12/17 06:03:00;;;;;;;4.40;4.00;;;;;;;;;;5020690;28;20182;-71
2021/12/17 06:05:25;;;;;;;3.60;3.27;;;;;;;;;;5023979;28;20467;-70
2021/12/17 06:07:51;;;;;;;3.50;3.20;;;;;;;;;;5019741;28;20817;-70
2021/12/17 06:10:16;;;;;;;5.33;3.57;;;;;;;;;;5027042;28;20540;-71
2021/12/17 06:12:42;;;;;;;3.90;3.60;;;;;;;;;;5027721;28;20176;-71
2021/12/17 06:15:09;;;;;;;3.53;3.23;;;;;;;;;;5025104;28;20248;-71
2021/12/17 06:17:34;;;;;;;4.87;4.00;;;;;;;;;;5024339;28;20180;-71
2021/12/17 06:20:00;;;;;;;5.87;4.47;;;;;;;;;;5027352;28;20476;-70
2021/12/17 06:22:25;;;;;;;5.17;4.53;;;;;;;;;;5024723;28;20191;-70
2021/12/17 06:24:53;;;;;;;5.50;4.83;;;;;;;;;;5023704;28;20200;-68
2021/12/17 06:27:20;;;;;;;4.70;4.20;;;;;;;;;;5029549;28;20337;-70
2021/12/17 06:29:46;;;;;;;6.90;4.90;;;;;;;;;;5027954;28;20435;-71
2021/12/17 06:32:12;;;;;;;6.10;4.50;;;;;;;;;;5028787;28;20441;-71
2021/12/17 06:34:46;;;;;;;7.33;4.83;;;;;;;;;;5013803;28;20454;-70
2021/12/17 06:37:18;;;;;;;6.50;4.90;;;;;;;;;;5026784;28;20450;-70
2021/12/17 06:39:45;;;;;;;9.20;5.47;;;;;;;;;;5028480;28;20493;-70
2021/12/17 06:42:13;;;;;;;7.37;5.57;;;;;;;;;;5026799;28;20438;-69
2021/12/17 06:44:40;;;;;;;9.10;5.90;;;;;;;;;;5029594;28;20458;-69
2021/12/17 06:50:00;;;;;;;9.30;6.50;;;;;;;;;;5030564;28;20428;-68
2021/12/17 07:06:41;;;;;;;7.77;6.47;;;;;;;;;;5025624;28;20454;-70
2021/12/17 07:28:31;;;;;;;10.80;7.40;;;;;;;;;;5002080;28;20428;-71
2021/12/17 07:33:44;;;;;;;12.07;8.07;;;;;;;;;;5019920;28;20456;-71
2021/12/17 07:36:15;;;;;;;12.83;8.17;;;;;;;;;;5028365;28;20810;-69
2021/12/17 07:38:50;;;;;;;9.67;6.80;;;;;;;;;;5020203;28;20467;-70
2021/12/17 07:41:16;;;;;;;11.53;7.70;;;;;;;;;;5029987;28;20465;-72
2021/12/17 07:43:52;;;;;;;9.63;7.40;;;;;;;;;;5026415;28;20453;-69
2021/12/17 07:46:18;;;;;;;11.87;8.30;;;;;;;;;;5027201;28;20429;-70
2021/12/17 07:48:43;;;;;;;11.63;6.90;;;;;;;;;;5023916;28;26072;-71
2021/12/17 07:51:10;;;;;;;11.13;7.77;;;;;;;;;;5023817;28;21061;-71
2021/12/17 07:53:35;;;;;;;10.73;7.10;;;;;;;;;;5023070;28;20195;-70
2021/12/17 07:56:02;;;;;;;12.67;7.77;;;;;;;;;;5038973;28;20457;-70
2021/12/17 07:58:28;;;;;;;15.73;9.03;;;;;;;;;;5023505;28;20207;-70
2021/12/17 08:00:57;;;;;;;11.10;7.60;;;;;;;;;;5024997;28;20453;-71
2021/12/17 08:03:23;;;;;;;14.63;8.60;;;;;;;;;;5021200;28;21123;-72
2021/12/17 08:05:49;;;;;;;15.87;9.50;;;;;;;;;;5032149;28;20450;-72
2021/12/17 08:08:14;;;;;;;16.40;9.40;;;;;;;;;;5032277;28;20194;-70
2021/12/17 08:10:39;;;;;;;12.07;8.83;;;;;;;;;;5019807;28;20422;-72
2021/12/17 08:13:07;;;;;;;16.83;8.90;;;;;;;;;;5027543;28;20687;-72
2021/12/17 08:15:40;;;;;;;12.80;8.43;;;;;;;;;;5030200;28;20187;-71
2021/12/17 08:18:42;;;;;;;15.83;9.43;;;;;;;;;;5036391;28;20511;-71
2021/12/17 08:26:39;;;;;;;16.53;10.50;;;;;;;;;;5031566;28;20423;-71
2021/12/17 08:31:34;;;;;;;18.63;10.10;;;;;;;;;;5026806;28;20437;-72
2021/12/17 08:34:02;;;;;;;13.97;9.77;;;;;;;;;;5031300;28;20924;-71
2021/12/17 08:36:30;;;;;;;16.67;11.13;;;;;;;;;;5029923;28;20181;-70
2021/12/17 08:38:58;;;;;;;15.80;10.07;;;;;;;;;;5031059;28;20562;-70
2021/12/17 08:41:24;;;;;;;15.77;9.90;;;;;;;;;;5029237;28;20496;-70
2021/12/17 08:43:49;;;;;;;15.43;8.00;;;;;;;;;;5027090;28;20958;-71
2021/12/17 08:46:15;;;;;;;14.50;9.93;;;;;;;;;;5030143;28;20181;-70
2021/12/17 08:48:40;;;;;;;13.60;8.97;;;;;;;;;;5008845;28;20515;-70
2021/12/17 08:51:09;;;;;;;10.30;7.73;;;;;;;;;;5016187;28;20222;-70
2021/12/17 08:53:35;;;;;;;14.93;8.10;;;;;;;;;;5021712;28;20211;-70
2021/12/17 08:56:02;;;;;;;13.40;8.40;;;;;;;;;;5018156;28;20505;-70
2021/12/17 08:58:27;;;;;;;12.27;8.10;;;;;;;;;;5026220;28;20510;-71
2021/12/17 09:00:52;;;;;;;11.90;7.80;;;;;;;;;;5032812;28;20526;-71
2021/12/17 09:03:18;;;;;;;9.00;6.63;;;;;;;;;;5027429;28;20828;-70
2021/12/17 09:05:44;;;;;;;12.33;7.63;;;;;;;;;;5019668;28;20207;-71
2021/12/17 09:08:10;;;;;;;11.13;7.10;;;;;;;;;;5020663;28;20180;-71
2021/12/17 09:10:36;;;;;;;10.87;7.30;;;;;;;;;;5037700;28;20544;-70
2021/12/17 09:13:01;;;;;;;12.10;6.77;;;;;;;;;;5023388;28;20177;-70
2021/12/17 09:15:27;;;;;;;11.07;7.20;;;;;;;;;;5018095;28;20449;-68
2021/12/17 09:17:52;;;;;;;10.50;6.97;;;;;;;;;;5025029;28;20179;-68
2021/12/17 09:20:19;;;;;;;12.83;7.03;;;;;;;;;;5027783;28;20286;-69
2021/12/17 09:22:44;;;;;;;11.80;7.30;;;;;;;;;;5008681;28;21167;-69
2021/12/17 09:25:10;;;;;;;11.53;7.30;;;;;;;;;;5022069;28;20461;-69
2021/12/17 09:27:36;;;;;;;10.27;6.37;;;;;;;;;;5030497;28;20191;-69
2021/12/17 09:30:04;;;;;;;11.00;6.00;;;;;;;;;;5028711;28;20253;-70
2021/12/17 09:32:30;;;;;;;7.57;5.40;;;;;;;;;;5029789;28;20809;-70
2021/12/17 09:34:55;;;;;;;9.07;5.10;;;;;;;;;;5031282;28;20447;-69
2021/12/17 09:37:20;;;;;;;6.23;4.53;;;;;;;;;;5039707;28;20277;-69
2021/12/17 09:39:46;;;;;;;4.50;3.60;;;;;;;;;;5017580;28;20524;-73
2021/12/17 09:42:11;;;;;;;9.13;4.07;;;;;;;;;;5018748;28;20185;-70
2021/12/17 09:44:37;;;;;;;5.57;3.63;;;;;;;;;;5024353;28;20199;-72
2021/12/17 09:47:05;;;;;;;6.87;3.40;;;;;;;;;;5032543;28;20176;-70
2021/12/17 09:49:31;;;;;;;8.67;3.40;;;;;;;;;;5031935;28;21048;-70
2021/12/17 09:51:57;;;;;;;3.80;3.30;;;;;;;;;;5027104;28;20435;-71
2021/12/17 09:54:22;;;;;;;4.93;2.77;;;;;;;;;;5031189;28;20205;-71
2021/12/17 09:56:48;;;;;;;5.23;3.60;;;;;;;;;;5008495;28;20442;-72
2021/12/17 09:59:14;;;;;;;2.13;1.63;;;;;;;;;;5012578;28;20207;-69
2021/12/17 10:01:41;;;;;;;2.83;1.60;;;;;;;;;;5003302;28;20180;-69
2021/12/17 10:04:14;;;;;;;1.80;1.10;;;;;;;;;;5010435;28;20210;-71
2021/12/17 10:06:42;;;;;;;3.13;1.00;;;;;;;;;;5012535;28;20426;-69
2021/12/17 10:09:11;;;;;;;1.43;0.80;;;;;;;;;;5019341;28;20992;-69
2021/12/17 10:11:36;;;;;;;0.87;0.87;;;;;;;;;;5005362;28;20839;-69
2021/12/17 10:14:18;;;;;;;1.73;1.00;;;;;;;;;;5021353;28;20458;-69
2021/12/17 10:16:50;;;;;;;0.70;0.70;;;;;;;;;;5034768;28;20192;-68
2021/12/17 10:19:38;;;;;;;1.33;0.87;;;;;;;;;;5025879;28;20466;-68
2021/12/17 10:22:13;;;;;;;0.77;0.67;;;;;;;;;;5028789;28;21174;-69
2021/12/17 10:24:42;;;;;;;0.60;0.60;;;;;;;;;;5027034;28;20469;-71
2021/12/17 10:27:17;;;;;;;0.50;0.50;;;;;;;;;;5019829;28;20438;-69
2021/12/17 10:29:43;;;;;;;0.53;0.53;;;;;;;;;;5020997;28;20942;-72
2021/12/17 10:32:15;;;;;;;0.50;0.50;;;;;;;;;;5025288;28;20434;-74
2021/12/17 10:34:57;;;;;;;0.70;0.57;;;;;;;;;;5024784;28;20632;-68
2021/12/17 10:37:40;;;;;;;0.60;0.60;;;;;;;;;;5019122;28;20498;-69
2021/12/17 10:40:15;;;;;;;0.97;0.70;;;;;;;;;;5022770;28;20469;-68
2021/12/17 10:42:47;;;;;;;1.73;0.80;;;;;;;;;;5022910;28;21028;-70
2021/12/17 10:45:23;;;;;;;0.63;0.63;;;;;;;;;;5027491;28;20512;-70
2021/12/17 10:48:01;;;;;;;0.97;0.60;;;;;;;;;;5020285;28;20438;-70
2021/12/17 10:50:27;;;;;;;1.50;0.77;;;;;;;;;;5023254;28;20480;-70
2021/12/17 10:52:56;;;;;;;0.70;0.70;;;;;;;;;;5031870;28;20446;-69
2021/12/17 10:55:22;;;;;;;0.93;0.60;;;;;;;;;;5030424;28;20970;-70
2021/12/17 10:57:48;;;;;;;0.97;0.70;;;;;;;;;;5028536;28;20461;-72
2021/12/17 11:00:16;;;;;;;0.80;0.70;;;;;;;;;;5026837;28;21097;-72
2021/12/17 11:02:51;;;;;;;4.40;0.90;;;;;;;;;;5027510;28;20186;-70
2021/12/17 11:05:17;;;;;;;1.70;0.80;;;;;;;;;;5028513;28;20461;-70
2021/12/17 11:07:46;;;;;;;0.67;0.67;;;;;;;;;;5025551;28;20456;-70
2021/12/17 11:10:12;;;;;;;0.70;0.70;;;;;;;;;;5027732;28;20436;-71
2021/12/17 11:12:39;;;;;;;2.00;0.70;;;;;;;;;;5029504;28;20455;-70
2021/12/17 11:15:10;;;;;;;1.07;0.77;;;;;;;;;;5029081;28;20490;-71
2021/12/17 11:17:36;;;;;;;1.20;1.20;;;;;;;;;;5028275;28;20573;-71
2021/12/17 11:20:04;;;;;;;1.20;1.10;;;;;;;;;;5031558;28;20490;-70
2021/12/17 11:22:30;;;;;;;4.37;1.97;;;;;;;;;;5027888;28;20430;-71
2021/12/17 11:25:01;;;;;;;1.60;1.50;;;;;;;;;;5020864;28;20456;-71
2021/12/17 11:27:27;;;;;;;2.37;1.60;;;;;;;;;;5020227;28;20441;-70
2021/12/17 11:29:53;;;;;;;3.00;1.60;;;;;;;;;;5025106;28;20438;-71
2021/12/17 11:32:19;;;;;;;2.10;2.00;;;;;;;;;;5029235;28;20800;-70
2021/12/17 11:34:44;;;;;;;3.40;3.10;;;;;;;;;;5030771;28;20208;-70
2021/12/17 11:37:10;;;;;;;3.70;3.20;;;;;;;;;;5028002;28;20188;-70
2021/12/17 11:39:38;;;;;;;3.03;2.73;;;;;;;;;;5030048;28;20233;-70
2021/12/17 11:42:29;;;;;;;2.80;2.60;;;;;;;;;;5024614;28;20946;-70
2021/12/17 11:47:39;;;;;;;3.43;2.93;;;;;;;;;;5016361;28;20532;-70
2021/12/17 11:50:06;;;;;;;3.03;2.83;;;;;;;;;;5022092;28;20518;-70
2021/12/17 11:52:35;;;;;;;2.73;2.53;;;;;;;;;;5019078;28;20187;-69
2021/12/17 11:55:19;;;;;;;3.03;2.80;;;;;;;;;;5030278;28;20583;-70
2021/12/17 11:57:44;;;;;;;3.30;3.10;;;;;;;;;;5028293;28;20464;-69
2021/12/17 12:00:13;;;;;;;3.50;3.20;;;;;;;;;;5022765;28;20461;-69
2021/12/17 12:02:46;;;;;;;3.07;2.87;;;;;;;;;;5031877;28;20645;-69
2021/12/17 12:05:31;;;;;;;4.20;3.80;;;;;;;;;;5027417;28;20489;-71
2021/12/17 12:08:16;;;;;;;2.93;2.73;;;;;;;;;;5032129;28;20425;-71
2021/12/17 12:10:42;;;;;;;3.03;2.83;;;;;;;;;;5022420;28;22422;-72
2021/12/17 12:13:07;;;;;;;3.50;3.20;;;;;;;;;;5018877;28;20528;-71
2021/12/17 12:15:33;;;;;;;3.33;3.10;;;;;;;;;;5023497;28;20274;-71
2021/12/17 12:18:03;;;;;;;3.53;3.17;;;;;;;;;;5023078;28;21425;-71
2021/12/17 12:20:50;;;;;;;3.27;2.90;;;;;;;;;;5019306;28;20589;-70
2021/12/17 12:23:37;;;;;;;3.43;3.13;;;;;;;;;;4995551;28;20430;-72
2021/12/17 12:26:08;;;;;;;3.57;3.27;;;;;;;;;;5039513;28;20449;-72
2021/12/17 12:28:47;;;;;;;5.50;3.67;;;;;;;;;;5018502;28;20938;-72
2021/12/17 12:31:24;;;;;;;3.53;3.20;;;;;;;;;;5015083;28;20434;-71
2021/12/17 12:34:02;;;;;;;3.53;3.23;;;;;;;;;;5018725;28;20578;-78
2021/12/17 12:36:45;;;;;;;4.83;3.57;;;;;;;;;;5022947;28;20425;-73
2021/12/17 12:39:17;;;;;;;4.67;3.30;;;;;;;;;;5024289;28;21013;-72
2021/12/17 12:41:57;;;;;;;5.17;3.43;;;;;;;;;;5025100;28;20438;-72
2021/12/17 12:44:37;;;;;;;3.97;3.03;;;;;;;;;;5013935;28;20884;-76
2021/12/17 12:47:03;;;;;;;3.93;2.90;;;;;;;;;;5027427;28;20438;-76
2021/12/17 12:49:48;;;;;;;3.53;3.20;;;;;;;;;;5029398;28;20434;-71
2021/12/17 12:52:33;;;;;;;2.90;2.70;;;;;;;;;;5016185;28;20184;-73
2021/12/17 12:55:00;;;;;;;3.43;2.93;;;;;;;;;;5030621;28;20480;-73
2021/12/17 12:57:25;;;;;;;4.83;3.20;;;;;;;;;;5024054;28;20491;-70
2021/12/17 12:59:52;;;;;;;2.90;2.67;;;;;;;;;;5020933;28;20466;-71
2021/12/17 13:02:20;;;;;;;4.30;3.17;;;;;;;;;;5015123;28;20394;-72
2021/12/17 13:04:46;;;;;;;7.03;6.30;;;;;;;;;;5023555;28;20821;-73
2021/12/17 13:07:13;;;;;;;5.10;4.60;;;;;;;;;;5046007;28;20975;-73
2021/12/17 13:09:42;;;;;;;5.30;4.03;;;;;;;;;;5031926;28;20200;-72
2021/12/17 13:12:08;;;;;;;4.60;3.10;;;;;;;;;;5029003;28;20438;-74
2021/12/17 13:14:41;;;;;;;3.00;2.70;;;;;;;;;;5031605;28;20503;-74
2021/12/17 13:17:29;;;;;;;4.63;3.10;;;;;;;;;;5034898;28;20176;-73
2021/12/17 13:20:29;;;;;;;3.17;2.60;;;;;;;;;;5035576;28;20454;-73
2021/12/17 13:22:56;;;;;;;3.20;2.83;;;;;;;;;;5028315;28;20786;-73
2021/12/17 13:25:28;;;;;;;4.13;3.10;;;;;;;;;;5034774;28;20450;-73
2021/12/17 13:27:54;;;;;;;3.30;2.87;;;;;;;;;;5028682;28;20430;-75
2021/12/17 13:30:24;;;;;;;5.70;3.10;;;;;;;;;;5031365;28;20442;-74
2021/12/17 13:32:50;;;;;;;2.90;2.70;;;;;;;;;;5025860;28;20662;-72
2021/12/17 13:35:17;;;;;;;3.63;2.90;;;;;;;;;;5031337;28;20489;-73
2021/12/17 13:37:45;;;;;;;3.37;3.07;;;;;;;;;;5032766;28;20919;-71
2021/12/17 13:40:12;;;;;;;3.33;3.03;;;;;;;;;;5035028;28;21032;-72
2021/12/17 13:42:38;;;;;;;6.13;3.50;;;;;;;;;;5028950;28;20431;-72
2021/12/17 13:45:05;;;;;;;5.13;3.37;;;;;;;;;;5019692;28;20512;-71
2021/12/17 13:47:38;;;;;;;4.10;2.80;;;;;;;;;;5025615;28;20188;-72
2021/12/17 13:50:07;;;;;;;4.33;3.40;;;;;;;;;;5025015;28;20442;-71
2021/12/17 13:52:35;;;;;;;3.73;2.70;;;;;;;;;;5030803;28;20437;-72
2021/12/17 13:55:02;;;;;;;4.13;2.67;;;;;;;;;;5023093;28;20685;-72
2021/12/17 13:57:29;;;;;;;5.23;3.10;;;;;;;;;;5028718;28;20500;-71
2021/12/17 14:00:24;;;;;;;6.73;3.70;;;;;;;;;;5025748;28;20496;-72
2021/12/17 14:02:52;;;;;;;3.37;3.07;;;;;;;;;;5017085;28;20442;-71
2021/12/17 14:05:20;;;;;;;4.20;2.97;;;;;;;;;;5031946;28;20477;-71
2021/12/17 14:07:48;;;;;;;4.97;3.00;;;;;;;;;;5028801;28;20438;-72
2021/12/17 14:10:23;;;;;;;4.20;3.20;;;;;;;;;;5025377;28;20482;-70
2021/12/17 14:12:48;;;;;;;4.83;2.87;;;;;;;;;;5027040;28;21088;-71
2021/12/17 14:15:27;;;;;;;4.13;3.10;;;;;;;;;;5024256;28;20461;-71
2021/12/17 14:17:53;;;;;;;6.70;3.70;;;;;;;;;;5020701;28;20183;-70
2021/12/17 14:20:22;;;;;;;7.93;3.50;;;;;;;;;;5030576;28;20545;-70
2021/12/17 14:22:48;;;;;;;3.47;3.07;;;;;;;;;;5027628;28;20447;-69
2021/12/17 14:25:23;;;;;;;6.33;3.33;;;;;;;;;;5014531;28;20477;-72
2021/12/17 14:27:51;;;;;;;3.53;2.97;;;;;;;;;;5015973;28;20430;-69
2021/12/17 14:30:21;;;;;;;3.60;3.30;;;;;;;;;;5018970;28;22113;-70
2021/12/17 14:32:47;;;;;;;5.43;4.00;;;;;;;;;;5018813;28;20477;-71
2021/12/17 14:35:13;;;;;;;6.13;3.67;;;;;;;;;;5024430;28;20587;-71
2021/12/17 14:38:17;;;;;;;3.53;3.17;;;;;;;;;;5020546;28;20889;-70
2021/12/17 14:40:52;;;;;;;3.67;3.37;;;;;;;;;;5034156;28;20808;-71
2021/12/17 14:43:36;;;;;;;4.00;3.47;;;;;;;;;;5031004;28;20429;-70
2021/12/17 14:46:14;;;;;;;4.90;3.57;;;;;;;;;;5031739;28;20431;-71
2021/12/17 14:48:52;;;;;;;7.47;4.20;;;;;;;;;;5024306;28;20441;-72
2021/12/17 15:04:40;;;;;;;9.10;4.43;;;;;;;;;;5026155;28;20564;-70
2021/12/17 15:07:05;;;;;;;4.67;4.17;;;;;;;;;;5032214;28;20546;-69
2021/12/17 15:09:35;;;;;;;5.33;3.90;;;;;;;;;;5020820;28;20673;-69
2021/12/17 15:12:11;;;;;;;4.07;3.77;;;;;;;;;;5018745;28;20186;-72
2021/12/17 15:14:36;;;;;;;6.67;4.20;;;;;;;;;;5026308;28;20450;-72
2021/12/17 15:17:02;;;;;;;5.43;4.47;;;;;;;;;;5021898;28;20531;-72
2021/12/17 15:19:28;;;;;;;4.53;3.70;;;;;;;;;;5030534;28;20207;-72
2021/12/17 15:21:53;;;;;;;5.50;3.83;;;;;;;;;;5026845;28;20175;-72
2021/12/17 15:24:18;;;;;;;2.80;2.60;;;;;;;;;;5031655;28;21146;-68
2021/12/17 15:26:46;;;;;;;5.93;3.60;;;;;;;;;;5028891;28;20188;-69
2021/12/17 15:29:12;;;;;;;3.90;3.37;;;;;;;;;;5025271;28;20203;-69
2021/12/17 15:31:37;;;;;;;4.57;2.87;;;;;;;;;;5016155;28;20479;-71
2021/12/17 15:34:03;;;;;;;7.03;3.87;;;;;;;;;;5016302;28;20208;-70
2021/12/17 15:36:28;;;;;;;3.27;2.77;;;;;;;;;;5021609;28;20275;-68
2021/12/17 15:38:53;;;;;;;4.30;3.20;;;;;;;;;;5024164;28;20282;-69
2021/12/17 15:41:22;;;;;;;5.50;2.97;;;;;;;;;;5022167;28;20272;-69
2021/12/17 15:43:47;;;;;;;3.27;2.70;;;;;;;;;;5023391;28;20200;-69
2021/12/17 15:46:13;;;;;;;4.40;2.90;;;;;;;;;;5022090;28;20445;-73
2021/12/17 15:48:38;;;;;;;3.00;2.80;;;;;;;;;;5024804;28;20199;-68
2021/12/17 15:51:04;;;;;;;3.10;2.37;;;;;;;;;;5026246;28;20180;-68
2021/12/17 15:53:33;;;;;;;1.90;1.77;;;;;;;;;;5021826;28;20230;-69
2021/12/17 15:56:01;;;;;;;2.73;2.47;;;;;;;;;;5023972;28;20175;-69
2021/12/17 15:58:27;;;;;;;2.50;2.30;;;;;;;;;;5020638;28;20431;-73
2021/12/17 16:00:55;;;;;;;4.10;2.50;;;;;;;;;;5021117;28;20481;-70
2021/12/17 16:03:25;;;;;;;2.80;2.47;;;;;;;;;;5018126;28;20615;-70
2021/12/17 16:05:51;;;;;;;3.33;2.73;;;;;;;;;;5021920;28;20496;-71
2021/12/17 16:08:16;;;;;;;2.80;2.60;;;;;;;;;;5022795;28;20537;-73
2021/12/17 16:22:06;;;;;;;2.27;2.07;;;;;;;;;;5021661;28;20840;-70
2021/12/17 16:24:34;;;;;;;2.50;2.30;;;;;;;;;;5030641;28;20924;-70
2021/12/17 16:26:59;;;;;;;2.67;2.30;;;;;;;;;;5026632;28;20446;-68
2021/12/17 16:29:25;;;;;;;3.10;2.80;;;;;;;;;;5028091;28;20434;-67
2021/12/17 16:31:50;;;;;;;3.90;3.50;;;;;;;;;;5024819;28;22538;-68
2021/12/17 16:34:16;;;;;;;4.00;3.60;;;;;;;;;;5019458;28;20196;-67
2021/12/17 16:36:42;;;;;;;6.73;4.60;;;;;;;;;;5025403;28;20184;-68
2021/12/17 16:39:12;;;;;;;6.00;4.13;;;;;;;;;;5019222;28;20196;-67
2021/12/17 16:41:44;;;;;;;4.83;4.13;;;;;;;;;;5021827;28;20183;-68
2021/12/17 16:44:12;;;;;;;5.33;4.80;;;;;;;;;;5023525;28;20450;-70
2021/12/17 16:49:12;;;;;;;4.40;4.10;;;;;;;;;;5031640;28;20508;-68
2021/12/17 16:51:41;;;;;;;4.03;3.67;;;;;;;;;;5023245;28;20861;-69
2021/12/17 16:54:10;;;;;;;2.93;2.63;;;;;;;;;;5026339;28;20579;-68
2021/12/17 16:56:35;;;;;;;2.73;2.20;;;;;;;;;;5016992;28;20451;-68
2021/12/17 16:59:01;;;;;;;3.33;2.80;;;;;;;;;;5025261;28;20470;-69
2021/12/17 17:01:27;;;;;;;2.50;2.30;;;;;;;;;;5017913;28;20960;-68
2021/12/17 17:03:53;;;;;;;2.70;2.43;;;;;;;;;;5025102;28;20200;-69
2021/12/17 17:06:19;;;;;;;2.60;2.37;;;;;;;;;;5031562;28;20775;-69
2021/12/17 17:08:46;;;;;;;2.97;2.73;;;;;;;;;;5025763;28;20934;-70
2021/12/17 17:11:14;;;;;;;3.40;2.87;;;;;;;;;;5029745;28;20649;-69
2021/12/17 17:13:40;;;;;;;3.10;2.70;;;;;;;;;;5025122;28;20469;-68
2021/12/17 17:16:05;;;;;;;2.60;2.40;;;;;;;;;;5026203;28;20426;-69
2021/12/17 17:18:37;;;;;;;2.00;1.90;;;;;;;;;;5027520;28;20568;-67
2021/12/17 17:21:04;;;;;;;2.43;1.90;;;;;;;;;;5024598;28;21237;-69
2021/12/17 17:23:30;;;;;;;2.50;2.07;;;;;;;;;;5025874;28;20461;-71
2021/12/17 17:25:55;;;;;;;1.50;1.40;;;;;;;;;;5030152;28;20492;-71
2021/12/17 17:28:21;;;;;;;1.50;1.40;;;;;;;;;;5028470;28;20426;-67
2021/12/17 17:30:48;;;;;;;1.27;1.17;;;;;;;;;;5026976;28;20180;-68
2021/12/17 17:33:13;;;;;;;1.30;1.20;;;;;;;;;;5027201;28;20180;-68
2021/12/17 17:35:39;;;;;;;1.20;1.10;;;;;;;;;;5019670;28;20834;-69
2021/12/17 17:38:04;;;;;;;1.57;1.03;;;;;;;;;;5017830;28;20222;-69
2021/12/17 17:40:35;;;;;;;1.83;1.20;;;;;;;;;;5026452;28;20334;-68
2021/12/17 17:43:01;;;;;;;0.90;0.90;;;;;;;;;;5025068;28;20257;-69
2021/12/17 17:45:30;;;;;;;2.07;1.00;;;;;;;;;;5022281;28;20834;-68
2021/12/17 17:47:56;;;;;;;1.03;1.00;;;;;;;;;;5019924;28;20443;-68
2021/12/17 17:50:21;;;;;;;0.80;0.80;;;;;;;;;;5025906;28;20441;-69
2021/12/17 17:52:46;;;;;;;0.87;0.87;;;;;;;;;;5027968;28;20706;-68
2021/12/17 17:55:12;;;;;;;0.83;0.80;;;;;;;;;;5028846;28;20701;-69
2021/12/17 17:57:40;;;;;;;1.00;0.90;;;;;;;;;;5018364;28;20195;-69
2021/12/17 18:00:07;;;;;;;1.00;1.00;;;;;;;;;;5026086;28;20200;-69
2021/12/17 18:02:34;;;;;;;1.30;0.90;;;;;;;;;;5014825;28;20465;-70